sensor_id;sensor_type;location;lat;lon;timestamp;P1;durP1;ratioP1;P2;durP2;ratioP2
37267;SDS011;23154;52.542;13.362;2023-03-26T00:00:56;14.77;;;3.88;;
37267;SDS011;23154;52.542;13.362;2023-03-26T00:03:22;13.02;;;3.78;;
37267;SDS011;23154;52.542;13.362;2023-03-26T00:05:48;8.25;;;3.30;;
37267;SDS011;23154;52.542;13.362;2023-03-26T00:08:15;13.13;;;3.70;;
37267;SDS011;23154;52.542;13.362;2023-03-26T00:10:42;13.88;;;3.70;;
37267;SDS011;23154;52.542;13.362;2023-03-26T00:13:08;13.38;;;3.65;;
37267;SDS011;23154;52.542;13.362;2023-03-26T00:15:35;9.90;;;3.25;;
37267;SDS011;23154;52.542;13.362;2023-03-26T00:18:01;12.38;;;3.40;;
37267;SDS011;23154;52.542;13.362;2023-03-26T00:20:28;10.27;;;3.22;;
37267;SDS011;23154;52.542;13.362;2023-03-26T00:22:56;8.50;;;2.90;;
37267;SDS011;23154;52.542;13.362;2023-03-26T00:25:25;10.65;;;3.20;;
37267;SDS011;23154;52.542;13.362;2023-03-26T00:27:51;13.27;;;3.50;;
37267;SDS011;23154;52.542;13.362;2023-03-26T00:30:18;14.25;;;3.33;;
37267;SDS011;23154;52.542;13.362;2023-03-26T00:32:44;14.63;;;3.10;;
37267;SDS011;23154;52.542;13.362;2023-03-26T00:35:10;12.05;;;3.05;;
37267;SDS011;23154;52.542;13.362;2023-03-26T00:37:37;12.55;;;3.13;;
37267;SDS011;23154;52.542;13.362;2023-03-26T00:40:06;10.35;;;2.70;;
37267;SDS011;23154;52.542;13.362;2023-03-26T00:42:35;9.45;;;2.70;;
37267;SDS011;23154;52.542;13.362;2023-03-26T00:45:05;8.82;;;2.85;;
37267;SDS011;23154;52.542;13.362;2023-03-26T00:47:32;10.73;;;2.88;;
37267;SDS011;23154;52.542;13.362;2023-03-26T00:49:58;10.63;;;3.00;;
37267;SDS011;23154;52.542;13.362;2023-03-26T00:52:24;11.13;;;2.70;;
37267;SDS011;23154;52.542;13.362;2023-03-26T00:54:52;7.75;;;2.50;;
37267;SDS011;23154;52.542;13.362;2023-03-26T00:57:19;11.00;;;2.72;;
37267;SDS011;23154;52.542;13.362;2023-03-26T00:59:46;14.40;;;2.78;;
37267;SDS011;23154;52.542;13.362;2023-03-26T01:02:13;7.60;;;2.50;;
37267;SDS011;23154;52.542;13.362;2023-03-26T01:07:09;12.40;;;2.60;;
37267;SDS011;23154;52.542;13.362;2023-03-26T01:09:38;10.68;;;2.58;;
37267;SDS011;23154;52.542;13.362;2023-03-26T01:12:09;6.60;;;2.37;;
37267;SDS011;23154;52.542;13.362;2023-03-26T01:14:35;11.35;;;2.53;;
37267;SDS011;23154;52.542;13.362;2023-03-26T01:17:03;10.35;;;2.60;;
37267;SDS011;23154;52.542;13.362;2023-03-26T01:22:06;10.98;;;2.55;;
37267;SDS011;23154;52.542;13.362;2023-03-26T01:24:36;6.88;;;2.65;;
37267;SDS011;23154;52.542;13.362;2023-03-26T01:29:42;10.60;;;2.78;;
37267;SDS011;23154;52.542;13.362;2023-03-26T01:40:03;9.32;;;2.50;;
37267;SDS011;23154;52.542;13.362;2023-03-26T01:44:58;9.75;;;2.80;;
37267;SDS011;23154;52.542;13.362;2023-03-26T01:47:28;10.27;;;2.50;;
37267;SDS011;23154;52.542;13.362;2023-03-26T01:49:55;5.20;;;2.35;;
37267;SDS011;23154;52.542;13.362;2023-03-26T01:52:21;7.90;;;2.10;;
37267;SDS011;23154;52.542;13.362;2023-03-26T01:54:50;10.50;;;2.30;;
37267;SDS011;23154;52.542;13.362;2023-03-26T01:57:19;7.35;;;2.13;;
37267;SDS011;23154;52.542;13.362;2023-03-26T02:04:59;5.10;;;2.00;;
37267;SDS011;23154;52.542;13.362;2023-03-26T02:10:25;10.55;;;2.03;;
37267;SDS011;23154;52.542;13.362;2023-03-26T02:12:52;8.32;;;2.20;;
37267;SDS011;23154;52.542;13.362;2023-03-26T02:15:19;8.20;;;2.42;;
37267;SDS011;23154;52.542;13.362;2023-03-26T02:17:45;7.63;;;2.20;;
37267;SDS011;23154;52.542;13.362;2023-03-26T02:20:13;8.07;;;2.13;;
37267;SDS011;23154;52.542;13.362;2023-03-26T02:22:40;7.82;;;2.88;;
37267;SDS011;23154;52.542;13.362;2023-03-26T02:25:19;5.30;;;2.20;;
37267;SDS011;23154;52.542;13.362;2023-03-26T02:27:49;7.70;;;2.40;;
37267;SDS011;23154;52.542;13.362;2023-03-26T02:30:17;8.88;;;2.75;;
37267;SDS011;23154;52.542;13.362;2023-03-26T02:32:43;9.05;;;2.80;;
37267;SDS011;23154;52.542;13.362;2023-03-26T02:35:10;8.77;;;2.90;;
37267;SDS011;23154;52.542;13.362;2023-03-26T02:37:36;10.38;;;2.80;;
37267;SDS011;23154;52.542;13.362;2023-03-26T02:40:03;10.07;;;3.13;;
37267;SDS011;23154;52.542;13.362;2023-03-26T02:42:34;11.50;;;3.17;;
37267;SDS011;23154;52.542;13.362;2023-03-26T02:45:00;10.05;;;3.20;;
37267;SDS011;23154;52.542;13.362;2023-03-26T02:47:26;9.10;;;3.00;;
37267;SDS011;23154;52.542;13.362;2023-03-26T02:49:52;13.55;;;3.30;;
37267;SDS011;23154;52.542;13.362;2023-03-26T02:52:18;13.55;;;3.47;;
37267;SDS011;23154;52.542;13.362;2023-03-26T02:54:44;9.65;;;2.92;;
37267;SDS011;23154;52.542;13.362;2023-03-26T02:57:11;10.85;;;3.03;;
37267;SDS011;23154;52.542;13.362;2023-03-26T02:59:37;8.98;;;2.72;;
37267;SDS011;23154;52.542;13.362;2023-03-26T03:02:03;7.68;;;2.67;;
37267;SDS011;23154;52.542;13.362;2023-03-26T03:04:31;10.68;;;2.75;;
37267;SDS011;23154;52.542;13.362;2023-03-26T03:06:57;10.98;;;2.83;;
37267;SDS011;23154;52.542;13.362;2023-03-26T03:09:24;8.30;;;2.70;;
37267;SDS011;23154;52.542;13.362;2023-03-26T03:11:50;9.65;;;3.08;;
37267;SDS011;23154;52.542;13.362;2023-03-26T03:14:19;9.43;;;3.10;;
37267;SDS011;23154;52.542;13.362;2023-03-26T03:16:45;10.50;;;3.08;;
37267;SDS011;23154;52.542;13.362;2023-03-26T03:19:11;10.20;;;2.78;;
37267;SDS011;23154;52.542;13.362;2023-03-26T03:21:38;10.63;;;2.78;;
37267;SDS011;23154;52.542;13.362;2023-03-26T03:24:04;9.30;;;2.70;;
37267;SDS011;23154;52.542;13.362;2023-03-26T03:26:30;10.35;;;3.45;;
37267;SDS011;23154;52.542;13.362;2023-03-26T03:28:58;8.70;;;2.75;;
37267;SDS011;23154;52.542;13.362;2023-03-26T03:31:24;7.20;;;3.10;;
37267;SDS011;23154;52.542;13.362;2023-03-26T03:33:51;11.95;;;3.50;;
37267;SDS011;23154;52.542;13.362;2023-03-26T03:36:18;10.02;;;2.83;;
37267;SDS011;23154;52.542;13.362;2023-03-26T03:38:46;14.27;;;3.45;;
37267;SDS011;23154;52.542;13.362;2023-03-26T03:41:12;10.73;;;2.75;;
37267;SDS011;23154;52.542;13.362;2023-03-26T03:43:38;11.48;;;3.65;;
37267;SDS011;23154;52.542;13.362;2023-03-26T03:46:05;10.05;;;3.30;;
37267;SDS011;23154;52.542;13.362;2023-03-26T03:48:31;12.25;;;3.63;;
37267;SDS011;23154;52.542;13.362;2023-03-26T03:50:57;13.85;;;3.35;;
37267;SDS011;23154;52.542;13.362;2023-03-26T03:53:23;12.20;;;3.47;;
37267;SDS011;23154;52.542;13.362;2023-03-26T03:55:56;12.52;;;3.65;;
37267;SDS011;23154;52.542;13.362;2023-03-26T03:58:24;14.82;;;3.40;;
37267;SDS011;23154;52.542;13.362;2023-03-26T04:00:54;10.63;;;3.10;;
37267;SDS011;23154;52.542;13.362;2023-03-26T04:03:25;10.30;;;3.22;;
37267;SDS011;23154;52.542;13.362;2023-03-26T04:05:52;11.90;;;3.20;;
37267;SDS011;23154;52.542;13.362;2023-03-26T04:08:22;17.33;;;3.55;;
37267;SDS011;23154;52.542;13.362;2023-03-26T04:10:48;10.85;;;3.00;;
37267;SDS011;23154;52.542;13.362;2023-03-26T04:13:15;12.48;;;3.05;;
37267;SDS011;23154;52.542;13.362;2023-03-26T04:15:41;14.27;;;3.60;;
37267;SDS011;23154;52.542;13.362;2023-03-26T04:18:07;13.75;;;3.17;;
37267;SDS011;23154;52.542;13.362;2023-03-26T04:20:37;10.40;;;3.30;;
37267;SDS011;23154;52.542;13.362;2023-03-26T04:23:05;10.23;;;3.33;;
37267;SDS011;23154;52.542;13.362;2023-03-26T04:25:31;12.82;;;3.10;;
37267;SDS011;23154;52.542;13.362;2023-03-26T04:28:00;14.35;;;3.92;;
37267;SDS011;23154;52.542;13.362;2023-03-26T04:30:32;13.63;;;3.00;;
37267;SDS011;23154;52.542;13.362;2023-03-26T04:33:00;13.38;;;3.40;;
37267;SDS011;23154;52.542;13.362;2023-03-26T04:35:29;9.65;;;3.03;;
37267;SDS011;23154;52.542;13.362;2023-03-26T04:38:00;14.50;;;3.47;;
37267;SDS011;23154;52.542;13.362;2023-03-26T04:40:30;9.85;;;3.22;;
37267;SDS011;23154;52.542;13.362;2023-03-26T04:42:59;14.75;;;3.38;;
37267;SDS011;23154;52.542;13.362;2023-03-26T04:45:26;15.48;;;3.53;;
37267;SDS011;23154;52.542;13.362;2023-03-26T04:47:54;6.57;;;2.95;;
37267;SDS011;23154;52.542;13.362;2023-03-26T04:50:23;10.90;;;2.70;;
37267;SDS011;23154;52.542;13.362;2023-03-26T04:52:51;13.68;;;3.20;;
37267;SDS011;23154;52.542;13.362;2023-03-26T04:55:29;16.35;;;3.17;;
37267;SDS011;23154;52.542;13.362;2023-03-26T04:58:22;8.77;;;3.05;;
37267;SDS011;23154;52.542;13.362;2023-03-26T05:00:54;11.27;;;3.03;;
37267;SDS011;23154;52.542;13.362;2023-03-26T05:03:21;12.48;;;2.95;;
37267;SDS011;23154;52.542;13.362;2023-03-26T05:05:46;11.95;;;3.05;;
37267;SDS011;23154;52.542;13.362;2023-03-26T05:08:13;7.45;;;2.53;;
37267;SDS011;23154;52.542;13.362;2023-03-26T05:10:39;10.38;;;2.88;;
37267;SDS011;23154;52.542;13.362;2023-03-26T05:13:05;9.73;;;2.60;;
37267;SDS011;23154;52.542;13.362;2023-03-26T05:15:32;11.60;;;2.70;;
37267;SDS011;23154;52.542;13.362;2023-03-26T05:17:58;9.18;;;2.90;;
37267;SDS011;23154;52.542;13.362;2023-03-26T05:20:24;12.50;;;3.05;;
37267;SDS011;23154;52.542;13.362;2023-03-26T05:22:52;6.97;;;2.90;;
37267;SDS011;23154;52.542;13.362;2023-03-26T05:25:18;11.15;;;3.42;;
37267;SDS011;23154;52.542;13.362;2023-03-26T05:27:44;10.68;;;2.97;;
37267;SDS011;23154;52.542;13.362;2023-03-26T05:30:11;14.40;;;3.20;;
37267;SDS011;23154;52.542;13.362;2023-03-26T05:32:39;16.35;;;3.10;;
37267;SDS011;23154;52.542;13.362;2023-03-26T05:35:05;12.68;;;3.10;;
37267;SDS011;23154;52.542;13.362;2023-03-26T05:37:31;14.63;;;3.10;;
37267;SDS011;23154;52.542;13.362;2023-03-26T05:39:57;11.05;;;3.30;;
37267;SDS011;23154;52.542;13.362;2023-03-26T05:42:23;13.98;;;3.65;;
37267;SDS011;23154;52.542;13.362;2023-03-26T05:44:49;16.75;;;3.88;;
37267;SDS011;23154;52.542;13.362;2023-03-26T05:47:15;11.23;;;3.00;;
37267;SDS011;23154;52.542;13.362;2023-03-26T05:49:41;10.95;;;2.90;;
37267;SDS011;23154;52.542;13.362;2023-03-26T05:52:07;10.82;;;3.28;;
37267;SDS011;23154;52.542;13.362;2023-03-26T05:54:34;16.13;;;3.10;;
37267;SDS011;23154;52.542;13.362;2023-03-26T05:56:59;10.60;;;3.17;;
37267;SDS011;23154;52.542;13.362;2023-03-26T05:59:25;14.38;;;3.33;;
37267;SDS011;23154;52.542;13.362;2023-03-26T06:01:51;15.50;;;4.03;;
37267;SDS011;23154;52.542;13.362;2023-03-26T06:04:18;13.65;;;3.05;;
37267;SDS011;23154;52.542;13.362;2023-03-26T06:06:44;13.98;;;2.92;;
37267;SDS011;23154;52.542;13.362;2023-03-26T06:09:10;9.05;;;3.05;;
37267;SDS011;23154;52.542;13.362;2023-03-26T06:11:37;11.98;;;2.95;;
37267;SDS011;23154;52.542;13.362;2023-03-26T06:14:03;11.23;;;2.83;;
37267;SDS011;23154;52.542;13.362;2023-03-26T06:16:29;12.02;;;2.95;;
37267;SDS011;23154;52.542;13.362;2023-03-26T06:18:55;9.48;;;2.80;;
37267;SDS011;23154;52.542;13.362;2023-03-26T06:21:22;12.75;;;3.30;;
37267;SDS011;23154;52.542;13.362;2023-03-26T06:23:47;7.97;;;2.50;;
37267;SDS011;23154;52.542;13.362;2023-03-26T06:26:14;9.82;;;3.15;;
37267;SDS011;23154;52.542;13.362;2023-03-26T06:28:41;9.25;;;2.47;;
37267;SDS011;23154;52.542;13.362;2023-03-26T06:31:07;11.32;;;2.85;;
37267;SDS011;23154;52.542;13.362;2023-03-26T06:33:33;12.35;;;2.40;;
37267;SDS011;23154;52.542;13.362;2023-03-26T06:35:58;10.50;;;2.78;;
37267;SDS011;23154;52.542;13.362;2023-03-26T06:38:24;8.73;;;2.50;;
37267;SDS011;23154;52.542;13.362;2023-03-26T06:40:50;8.52;;;2.53;;
37267;SDS011;23154;52.542;13.362;2023-03-26T06:43:17;9.50;;;2.70;;
37267;SDS011;23154;52.542;13.362;2023-03-26T06:45:43;13.50;;;2.60;;
37267;SDS011;23154;52.542;13.362;2023-03-26T06:48:09;7.53;;;2.67;;
37267;SDS011;23154;52.542;13.362;2023-03-26T06:50:35;10.80;;;2.60;;
37267;SDS011;23154;52.542;13.362;2023-03-26T06:53:01;9.95;;;2.90;;
37267;SDS011;23154;52.542;13.362;2023-03-26T06:55:28;9.23;;;2.10;;
37267;SDS011;23154;52.542;13.362;2023-03-26T06:57:55;8.10;;;2.55;;
37267;SDS011;23154;52.542;13.362;2023-03-26T07:00:22;11.40;;;2.88;;
37267;SDS011;23154;52.542;13.362;2023-03-26T07:02:48;12.13;;;2.70;;
37267;SDS011;23154;52.542;13.362;2023-03-26T07:05:14;14.02;;;3.13;;
37267;SDS011;23154;52.542;13.362;2023-03-26T07:07:40;11.57;;;2.80;;
37267;SDS011;23154;52.542;13.362;2023-03-26T07:10:06;10.40;;;2.88;;
37267;SDS011;23154;52.542;13.362;2023-03-26T07:12:32;12.30;;;2.90;;
37267;SDS011;23154;52.542;13.362;2023-03-26T07:14:59;13.00;;;2.90;;
37267;SDS011;23154;52.542;13.362;2023-03-26T07:17:26;9.88;;;2.90;;
37267;SDS011;23154;52.542;13.362;2023-03-26T07:19:51;10.43;;;2.83;;
37267;SDS011;23154;52.542;13.362;2023-03-26T07:22:19;10.70;;;3.10;;
37267;SDS011;23154;52.542;13.362;2023-03-26T07:24:47;11.00;;;3.15;;
37267;SDS011;23154;52.542;13.362;2023-03-26T07:27:22;16.17;;;3.60;;
37267;SDS011;23154;52.542;13.362;2023-03-26T07:29:58;12.70;;;2.88;;
37267;SDS011;23154;52.542;13.362;2023-03-26T07:35:25;13.15;;;3.55;;
37267;SDS011;23154;52.542;13.362;2023-03-26T07:38:31;10.40;;;2.85;;
37267;SDS011;23154;52.542;13.362;2023-03-26T07:41:11;13.25;;;3.30;;
37267;SDS011;23154;52.542;13.362;2023-03-26T07:46:15;16.42;;;2.88;;
37267;SDS011;23154;52.542;13.362;2023-03-26T07:48:45;13.05;;;2.92;;
37267;SDS011;23154;52.542;13.362;2023-03-26T07:53:42;11.40;;;2.40;;
37267;SDS011;23154;52.542;13.362;2023-03-26T07:58:44;15.80;;;2.80;;
37267;SDS011;23154;52.542;13.362;2023-03-26T08:18:55;10.95;;;2.70;;
37267;SDS011;23154;52.542;13.362;2023-03-26T08:21:27;13.82;;;2.80;;
37267;SDS011;23154;52.542;13.362;2023-03-26T08:32:08;11.40;;;3.33;;
37267;SDS011;23154;52.542;13.362;2023-03-26T08:34:39;11.77;;;2.92;;
37267;SDS011;23154;52.542;13.362;2023-03-26T08:37:05;14.20;;;3.20;;
37267;SDS011;23154;52.542;13.362;2023-03-26T08:39:30;10.88;;;3.25;;
37267;SDS011;23154;52.542;13.362;2023-03-26T08:44:56;16.65;;;3.13;;
37267;SDS011;23154;52.542;13.362;2023-03-26T08:55:42;28.95;;;3.40;;
37267;SDS011;23154;52.542;13.362;2023-03-26T09:09:18;12.88;;;3.47;;
37267;SDS011;23154;52.542;13.362;2023-03-26T09:23:39;8.88;;;2.33;;
37267;SDS011;23154;52.542;13.362;2023-03-26T09:26:28;14.90;;;2.78;;
37267;SDS011;23154;52.542;13.362;2023-03-26T09:32:20;11.60;;;2.90;;
37267;SDS011;23154;52.542;13.362;2023-03-26T09:35:04;15.20;;;3.60;;
37267;SDS011;23154;52.542;13.362;2023-03-26T09:40:48;14.45;;;3.45;;
37267;SDS011;23154;52.542;13.362;2023-03-26T10:06:01;12.75;;;3.20;;
37267;SDS011;23154;52.542;13.362;2023-03-26T10:19:46;12.45;;;3.13;;
37267;SDS011;23154;52.542;13.362;2023-03-26T10:25:13;11.10;;;3.05;;
37267;SDS011;23154;52.542;13.362;2023-03-26T10:36:27;11.07;;;3.05;;
37267;SDS011;23154;52.542;13.362;2023-03-26T10:49:49;14.68;;;4.20;;
37267;SDS011;23154;52.542;13.362;2023-03-26T10:52:21;13.98;;;3.70;;
37267;SDS011;23154;52.542;13.362;2023-03-26T11:00:27;11.55;;;3.60;;
37267;SDS011;23154;52.542;13.362;2023-03-26T11:05:49;16.67;;;4.15;;
37267;SDS011;23154;52.542;13.362;2023-03-26T11:08:32;16.38;;;3.78;;
37267;SDS011;23154;52.542;13.362;2023-03-26T11:11:01;15.27;;;3.53;;
37267;SDS011;23154;52.542;13.362;2023-03-26T11:13:52;16.50;;;3.72;;
37267;SDS011;23154;52.542;13.362;2023-03-26T11:16:40;13.13;;;3.17;;
37267;SDS011;23154;52.542;13.362;2023-03-26T11:19:31;16.98;;;3.70;;
37267;SDS011;23154;52.542;13.362;2023-03-26T11:33:08;18.40;;;3.95;;
37267;SDS011;23154;52.542;13.362;2023-03-26T11:35:39;15.50;;;3.47;;
37267;SDS011;23154;52.542;13.362;2023-03-26T11:40:42;17.17;;;3.90;;
37267;SDS011;23154;52.542;13.362;2023-03-26T11:43:14;15.60;;;3.55;;
37267;SDS011;23154;52.542;13.362;2023-03-26T11:45:43;14.98;;;3.45;;
37267;SDS011;23154;52.542;13.362;2023-03-26T11:51:16;15.05;;;4.03;;
37267;SDS011;23154;52.542;13.362;2023-03-26T11:53:54;14.77;;;3.75;;
37267;SDS011;23154;52.542;13.362;2023-03-26T12:01:48;15.55;;;3.85;;
37267;SDS011;23154;52.542;13.362;2023-03-26T12:04:19;13.35;;;3.45;;
37267;SDS011;23154;52.542;13.362;2023-03-26T12:06:55;13.02;;;3.50;;
37267;SDS011;23154;52.542;13.362;2023-03-26T12:09:24;14.15;;;3.90;;
37267;SDS011;23154;52.542;13.362;2023-03-26T12:11:53;17.02;;;3.90;;
37267;SDS011;23154;52.542;13.362;2023-03-26T12:14:24;10.02;;;3.35;;
37267;SDS011;23154;52.542;13.362;2023-03-26T12:17:01;25.90;;;6.63;;
37267;SDS011;23154;52.542;13.362;2023-03-26T12:19:33;18.23;;;4.00;;
37267;SDS011;23154;52.542;13.362;2023-03-26T12:22:02;25.25;;;6.55;;
37267;SDS011;23154;52.542;13.362;2023-03-26T12:27:18;13.95;;;3.50;;
37267;SDS011;23154;52.542;13.362;2023-03-26T12:32:56;12.02;;;3.70;;
37267;SDS011;23154;52.542;13.362;2023-03-26T12:35:28;14.05;;;3.60;;
37267;SDS011;23154;52.542;13.362;2023-03-26T12:43:39;13.07;;;3.45;;
37267;SDS011;23154;52.542;13.362;2023-03-26T12:48:53;13.40;;;3.80;;
37267;SDS011;23154;52.542;13.362;2023-03-26T12:51:25;9.90;;;3.30;;
37267;SDS011;23154;52.542;13.362;2023-03-26T12:57:10;13.95;;;3.67;;
37267;SDS011;23154;52.542;13.362;2023-03-26T13:03:01;9.50;;;3.78;;
37267;SDS011;23154;52.542;13.362;2023-03-26T13:05:57;11.55;;;3.72;;
37267;SDS011;23154;52.542;13.362;2023-03-26T13:25:21;8.13;;;3.60;;
37267;SDS011;23154;52.542;13.362;2023-03-26T13:30:31;14.63;;;4.05;;
37267;SDS011;23154;52.542;13.362;2023-03-26T13:36:09;8.35;;;3.83;;
37267;SDS011;23154;52.542;13.362;2023-03-26T13:47:21;13.88;;;3.65;;
37267;SDS011;23154;52.542;13.362;2023-03-26T13:49:56;12.05;;;3.72;;
37267;SDS011;23154;52.542;13.362;2023-03-26T13:52:32;11.40;;;3.92;;
37267;SDS011;23154;52.542;13.362;2023-03-26T13:55:20;12.77;;;4.15;;
37267;SDS011;23154;52.542;13.362;2023-03-26T13:58:00;10.77;;;4.07;;
37267;SDS011;23154;52.542;13.362;2023-03-26T14:06:17;12.32;;;4.50;;
37267;SDS011;23154;52.542;13.362;2023-03-26T14:08:45;10.05;;;3.90;;
37267;SDS011;23154;52.542;13.362;2023-03-26T14:11:20;9.13;;;4.18;;
37267;SDS011;23154;52.542;13.362;2023-03-26T14:17:02;12.57;;;4.00;;
37267;SDS011;23154;52.542;13.362;2023-03-26T14:22:37;14.02;;;4.00;;
37267;SDS011;23154;52.542;13.362;2023-03-26T14:28:41;14.90;;;4.55;;
37267;SDS011;23154;52.542;13.362;2023-03-26T14:33:57;13.85;;;4.20;;
37267;SDS011;23154;52.542;13.362;2023-03-26T14:45:43;13.90;;;4.35;;
37267;SDS011;23154;52.542;13.362;2023-03-26T14:54:12;11.27;;;4.00;;
37267;SDS011;23154;52.542;13.362;2023-03-26T15:11:49;10.40;;;4.30;;
37267;SDS011;23154;52.542;13.362;2023-03-26T15:45:44;12.73;;;4.43;;
37267;SDS011;23154;52.542;13.362;2023-03-26T15:48:35;13.32;;;4.35;;
37267;SDS011;23154;52.542;13.362;2023-03-26T15:51:44;10.10;;;4.50;;
37267;SDS011;23154;52.542;13.362;2023-03-26T15:54:38;12.57;;;5.10;;
37267;SDS011;23154;52.542;13.362;2023-03-26T16:16:46;12.88;;;4.47;;
37267;SDS011;23154;52.542;13.362;2023-03-26T16:18:39;11.82;;;4.55;;
37267;SDS011;23154;52.542;13.362;2023-03-26T16:21:37;9.98;;;4.43;;
37267;SDS011;23154;52.542;13.362;2023-03-26T16:29:18;14.32;;;4.45;;
37267;SDS011;23154;52.542;13.362;2023-03-26T16:34:41;14.38;;;4.70;;
37267;SDS011;23154;52.542;13.362;2023-03-26T16:47:57;14.43;;;5.00;;
37267;SDS011;23154;52.542;13.362;2023-03-26T16:55:53;11.55;;;4.40;;
37267;SDS011;23154;52.542;13.362;2023-03-26T16:58:58;12.07;;;4.45;;
37267;SDS011;23154;52.542;13.362;2023-03-26T17:04:15;16.63;;;4.70;;
37267;SDS011;23154;52.542;13.362;2023-03-26T17:23:29;14.55;;;4.80;;
37267;SDS011;23154;52.542;13.362;2023-03-26T17:26:10;16.27;;;5.32;;
37267;SDS011;23154;52.542;13.362;2023-03-26T17:31:42;15.90;;;5.68;;
37267;SDS011;23154;52.542;13.362;2023-03-26T17:34:30;16.88;;;5.43;;
37267;SDS011;23154;52.542;13.362;2023-03-26T17:36:58;18.77;;;6.28;;
37267;SDS011;23154;52.542;13.362;2023-03-26T17:47:32;18.90;;;5.75;;
37267;SDS011;23154;52.542;13.362;2023-03-26T17:50:13;17.52;;;5.35;;
37267;SDS011;23154;52.542;13.362;2023-03-26T17:52:50;17.13;;;5.88;;
37267;SDS011;23154;52.542;13.362;2023-03-26T17:55:31;18.33;;;5.70;;
37267;SDS011;23154;52.542;13.362;2023-03-26T17:58:05;18.80;;;5.70;;
37267;SDS011;23154;52.542;13.362;2023-03-26T18:00:51;21.52;;;6.53;;
37267;SDS011;23154;52.542;13.362;2023-03-26T18:03:27;18.95;;;6.47;;
37267;SDS011;23154;52.542;13.362;2023-03-26T18:06:02;22.55;;;7.00;;
37267;SDS011;23154;52.542;13.362;2023-03-26T18:17:42;23.30;;;8.57;;
37267;SDS011;23154;52.542;13.362;2023-03-26T18:20:44;24.67;;;7.35;;
37267;SDS011;23154;52.542;13.362;2023-03-26T18:23:11;19.90;;;6.25;;
37267;SDS011;23154;52.542;13.362;2023-03-26T18:26:13;19.02;;;5.65;;
37267;SDS011;23154;52.542;13.362;2023-03-26T18:31:51;27.83;;;9.50;;
37267;SDS011;23154;52.542;13.362;2023-03-26T18:34:25;25.30;;;8.23;;
37267;SDS011;23154;52.542;13.362;2023-03-26T18:36:58;17.50;;;6.15;;
37267;SDS011;23154;52.542;13.362;2023-03-26T18:40:00;19.52;;;6.93;;
37267;SDS011;23154;52.542;13.362;2023-03-26T18:42:36;16.30;;;5.70;;
37267;SDS011;23154;52.542;13.362;2023-03-26T18:45:08;25.00;;;5.93;;
37267;SDS011;23154;52.542;13.362;2023-03-26T18:47:55;18.88;;;5.07;;
37267;SDS011;23154;52.542;13.362;2023-03-26T18:50:27;15.95;;;5.18;;
37267;SDS011;23154;52.542;13.362;2023-03-26T18:53:05;15.75;;;5.10;;
37267;SDS011;23154;52.542;13.362;2023-03-26T18:55:56;19.58;;;4.95;;
37267;SDS011;23154;52.542;13.362;2023-03-26T19:01:06;18.38;;;5.32;;
37267;SDS011;23154;52.542;13.362;2023-03-26T19:03:34;19.73;;;5.38;;
37267;SDS011;23154;52.542;13.362;2023-03-26T19:06:03;22.87;;;5.43;;
37267;SDS011;23154;52.542;13.362;2023-03-26T19:08:34;18.77;;;5.35;;
37267;SDS011;23154;52.542;13.362;2023-03-26T19:11:07;16.40;;;4.57;;
37267;SDS011;23154;52.542;13.362;2023-03-26T19:13:37;15.93;;;5.10;;
37267;SDS011;23154;52.542;13.362;2023-03-26T19:16:11;16.17;;;5.03;;
37267;SDS011;23154;52.542;13.362;2023-03-26T19:18:44;15.68;;;5.15;;
37267;SDS011;23154;52.542;13.362;2023-03-26T19:21:10;16.33;;;5.60;;
37267;SDS011;23154;52.542;13.362;2023-03-26T19:23:38;18.50;;;5.22;;
37267;SDS011;23154;52.542;13.362;2023-03-26T19:26:05;19.15;;;5.18;;
37267;SDS011;23154;52.542;13.362;2023-03-26T19:31:38;21.05;;;5.70;;
37267;SDS011;23154;52.542;13.362;2023-03-26T19:34:20;22.80;;;5.47;;
37267;SDS011;23154;52.542;13.362;2023-03-26T19:37:00;18.25;;;5.47;;
37267;SDS011;23154;52.542;13.362;2023-03-26T19:40:00;17.85;;;4.72;;
37267;SDS011;23154;52.542;13.362;2023-03-26T19:42:29;21.58;;;5.57;;
37267;SDS011;23154;52.542;13.362;2023-03-26T19:45:02;19.05;;;5.32;;
37267;SDS011;23154;52.542;13.362;2023-03-26T19:47:40;21.30;;;5.05;;
37267;SDS011;23154;52.542;13.362;2023-03-26T19:50:24;18.88;;;5.57;;
37267;SDS011;23154;52.542;13.362;2023-03-26T19:53:08;21.33;;;5.72;;
37267;SDS011;23154;52.542;13.362;2023-03-26T19:55:50;23.98;;;5.55;;
37267;SDS011;23154;52.542;13.362;2023-03-26T19:58:51;22.08;;;5.80;;
37267;SDS011;23154;52.542;13.362;2023-03-26T20:01:27;20.67;;;5.80;;
37267;SDS011;23154;52.542;13.362;2023-03-26T20:04:02;21.45;;;5.93;;
37267;SDS011;23154;52.542;13.362;2023-03-26T20:06:30;18.38;;;5.47;;
37267;SDS011;23154;52.542;13.362;2023-03-26T20:08:57;28.02;;;5.65;;
37267;SDS011;23154;52.542;13.362;2023-03-26T20:11:28;24.00;;;5.50;;
37267;SDS011;23154;52.542;13.362;2023-03-26T20:14:05;17.13;;;4.80;;
37267;SDS011;23154;52.542;13.362;2023-03-26T20:16:42;26.20;;;5.38;;
37267;SDS011;23154;52.542;13.362;2023-03-26T20:19:08;21.83;;;5.10;;
37267;SDS011;23154;52.542;13.362;2023-03-26T20:21:35;26.13;;;7.05;;
37267;SDS011;23154;52.542;13.362;2023-03-26T20:24:06;22.52;;;5.13;;
37267;SDS011;23154;52.542;13.362;2023-03-26T20:26:41;23.23;;;5.53;;
37267;SDS011;23154;52.542;13.362;2023-03-26T20:29:08;25.17;;;5.20;;
37267;SDS011;23154;52.542;13.362;2023-03-26T20:31:34;22.17;;;5.25;;
37267;SDS011;23154;52.542;13.362;2023-03-26T20:34:01;20.30;;;4.75;;
37267;SDS011;23154;52.542;13.362;2023-03-26T20:36:26;23.13;;;5.43;;
37267;SDS011;23154;52.542;13.362;2023-03-26T20:38:52;24.25;;;5.65;;
37267;SDS011;23154;52.542;13.362;2023-03-26T20:41:21;18.50;;;5.28;;
37267;SDS011;23154;52.542;13.362;2023-03-26T20:43:48;23.25;;;4.88;;
37267;SDS011;23154;52.542;13.362;2023-03-26T20:46:16;22.90;;;4.70;;
37267;SDS011;23154;52.542;13.362;2023-03-26T20:48:44;24.33;;;5.45;;
37267;SDS011;23154;52.542;13.362;2023-03-26T20:51:13;25.10;;;5.00;;
37267;SDS011;23154;52.542;13.362;2023-03-26T20:53:40;28.45;;;5.55;;
37267;SDS011;23154;52.542;13.362;2023-03-26T20:56:18;29.70;;;6.75;;
37267;SDS011;23154;52.542;13.362;2023-03-26T20:58:45;20.98;;;5.55;;
37267;SDS011;23154;52.542;13.362;2023-03-26T21:01:13;26.85;;;4.97;;
37267;SDS011;23154;52.542;13.362;2023-03-26T21:03:41;24.05;;;4.70;;
37267;SDS011;23154;52.542;13.362;2023-03-26T21:06:09;26.95;;;5.80;;
37267;SDS011;23154;52.542;13.362;2023-03-26T21:08:40;21.88;;;4.53;;
37267;SDS011;23154;52.542;13.362;2023-03-26T21:11:16;23.10;;;5.15;;
37267;SDS011;23154;52.542;13.362;2023-03-26T21:14:03;21.88;;;6.97;;
37267;SDS011;23154;52.542;13.362;2023-03-26T21:16:33;24.58;;;5.18;;
37267;SDS011;23154;52.542;13.362;2023-03-26T21:18:59;25.75;;;5.88;;
37267;SDS011;23154;52.542;13.362;2023-03-26T21:21:29;22.30;;;5.20;;
37267;SDS011;23154;52.542;13.362;2023-03-26T21:29:50;20.75;;;4.97;;
37267;SDS011;23154;52.542;13.362;2023-03-26T21:32:18;19.35;;;5.53;;
37267;SDS011;23154;52.542;13.362;2023-03-26T21:34:44;25.85;;;6.25;;
37267;SDS011;23154;52.542;13.362;2023-03-26T21:37:12;21.17;;;5.40;;
37267;SDS011;23154;52.542;13.362;2023-03-26T21:39:38;25.45;;;5.35;;
37267;SDS011;23154;52.542;13.362;2023-03-26T21:42:06;27.13;;;5.80;;
37267;SDS011;23154;52.542;13.362;2023-03-26T21:44:32;27.25;;;6.38;;